Hoosick Falls, New York
Current Conditions -  °F | °C
As of 2:54 AM on Tuesday 21 Oct 2014 (Local Time) from KDDH Reporting Station
Overcast Overcast  
Wind Chill: 52°   Ceiling: 6000
Heat Index: 52°   Visibility: 10mi
Dew Point: 38°   Wind: 5mph
Humidity: 59%   Direction: NA
Pressure: 29.92"   Gusts: NA
Location:  42.9°N, 73.35°W
Report Text: KDDH 210654Z AUTO VRB04KT 10SM BKN060 OVC090 11/03 A2992 RMK AO2 SLP132 T01110033
Loading
Personal Weather Stations






























Interactive Weather Map
Tropical Storm Tracking
New forecast layout! Learn more

10-Day Weather Forecast

Advertisements
Track Severe Weather on mobile